sensor_id;sensor_type;location;lat;lon;timestamp;temperature;humidity
11639;DHT22;5875;35.940;126.892;2022-08-18T00:02:19;28.00;99.90
11639;DHT22;5875;35.940;126.892;2022-08-18T00:04:47;27.90;99.90
11639;DHT22;5875;35.940;126.892;2022-08-18T00:07:21;28.80;99.90
11639;DHT22;5875;35.940;126.892;2022-08-18T00:09:48;28.50;99.90
11639;DHT22;5875;35.940;126.892;2022-08-18T00:12:27;28.70;99.90
11639;DHT22;5875;35.940;126.892;2022-08-18T00:14:56;28.70;99.90
11639;DHT22;5875;35.940;126.892;2022-08-18T00:17:27;28.90;99.90
11639;DHT22;5875;35.940;126.892;2022-08-18T00:19:54;28.60;99.90
11639;DHT22;5875;35.940;126.892;2022-08-18T00:22:22;28.40;99.90
11639;DHT22;5875;35.940;126.892;2022-08-18T00:24:52;28.40;99.90
11639;DHT22;5875;35.940;126.892;2022-08-18T00:27:26;28.20;99.90
11639;DHT22;5875;35.940;126.892;2022-08-18T00:29:55;28.40;99.90
11639;DHT22;5875;35.940;126.892;2022-08-18T00:32:27;29.10;99.90
11639;DHT22;5875;35.940;126.892;2022-08-18T00:34:55;29.70;99.90
11639;DHT22;5875;35.940;126.892;2022-08-18T00:37:23;29.00;99.90
11639;DHT22;5875;35.940;126.892;2022-08-18T00:39:53;29.20;99.90
11639;DHT22;5875;35.940;126.892;2022-08-18T00:42:26;28.70;99.90
11639;DHT22;5875;35.940;126.892;2022-08-18T00:44:56;29.10;99.90
11639;DHT22;5875;35.940;126.892;2022-08-18T00:47:23;29.00;99.90
11639;DHT22;5875;35.940;126.892;2022-08-18T00:49:53;29.00;99.90
11639;DHT22;5875;35.940;126.892;2022-08-18T00:52:22;29.10;99.90
11639;DHT22;5875;35.940;126.892;2022-08-18T00:54:51;30.30;99.90
11639;DHT22;5875;35.940;126.892;2022-08-18T00:57:20;30.30;99.90
11639;DHT22;5875;35.940;126.892;2022-08-18T00:59:57;31.00;99.90
11639;DHT22;5875;35.940;126.892;2022-08-18T01:02:39;32.10;99.90
11639;DHT22;5875;35.940;126.892;2022-08-18T01:05:33;31.70;99.90
11639;DHT22;5875;35.940;126.892;2022-08-18T01:07:59;32.80;99.90
11639;DHT22;5875;35.940;126.892;2022-08-18T01:10:26;33.10;99.90
11639;DHT22;5875;35.940;126.892;2022-08-18T01:12:56;31.90;99.90
11639;DHT22;5875;35.940;126.892;2022-08-18T01:15:25;32.10;99.90
11639;DHT22;5875;35.940;126.892;2022-08-18T01:17:54;31.80;99.90
11639;DHT22;5875;35.940;126.892;2022-08-18T01:23:40;34.50;99.90
11639;DHT22;5875;35.940;126.892;2022-08-18T01:26:07;35.30;99.90
11639;DHT22;5875;35.940;126.892;2022-08-18T01:28:38;34.60;99.90
11639;DHT22;5875;35.940;126.892;2022-08-18T01:31:07;35.20;99.90
11639;DHT22;5875;35.940;126.892;2022-08-18T01:33:39;35.70;99.90
11639;DHT22;5875;35.940;126.892;2022-08-18T01:36:12;36.20;99.90
11639;DHT22;5875;35.940;126.892;2022-08-18T01:38:43;36.50;99.90
11639;DHT22;5875;35.940;126.892;2022-08-18T01:41:10;36.90;99.90
11639;DHT22;5875;35.940;126.892;2022-08-18T01:43:38;36.70;99.90
11639;DHT22;5875;35.940;126.892;2022-08-18T01:46:05;36.80;99.90
11639;DHT22;5875;35.940;126.892;2022-08-18T01:48:37;36.80;99.90
11639;DHT22;5875;35.940;126.892;2022-08-18T01:51:08;37.40;99.90
11639;DHT22;5875;35.940;126.892;2022-08-18T01:53:36;37.70;99.90
11639;DHT22;5875;35.940;126.892;2022-08-18T01:56:04;37.70;99.90
11639;DHT22;5875;35.940;126.892;2022-08-18T01:58:35;37.90;99.90
11639;DHT22;5875;35.940;126.892;2022-08-18T02:01:03;37.10;99.90
11639;DHT22;5875;35.940;126.892;2022-08-18T02:03:44;36.60;99.90
11639;DHT22;5875;35.940;126.892;2022-08-18T02:06:15;37.00;99.90
11639;DHT22;5875;35.940;126.892;2022-08-18T02:08:44;36.60;99.90
11639;DHT22;5875;35.940;126.892;2022-08-18T02:11:12;35.50;99.90
11639;DHT22;5875;35.940;126.892;2022-08-18T02:13:39;35.00;99.90
11639;DHT22;5875;35.940;126.892;2022-08-18T02:16:08;35.70;99.90
11639;DHT22;5875;35.940;126.892;2022-08-18T02:18:36;35.20;99.90
11639;DHT22;5875;35.940;126.892;2022-08-18T02:21:21;36.20;99.90
11639;DHT22;5875;35.940;126.892;2022-08-18T02:23:49;37.00;99.90
11639;DHT22;5875;35.940;126.892;2022-08-18T02:26:17;36.50;99.90
11639;DHT22;5875;35.940;126.892;2022-08-18T02:28:45;37.40;99.90
11639;DHT22;5875;35.940;126.892;2022-08-18T02:31:15;37.10;99.90
11639;DHT22;5875;35.940;126.892;2022-08-18T02:33:44;35.80;99.90
11639;DHT22;5875;35.940;126.892;2022-08-18T02:36:12;35.40;99.90
11639;DHT22;5875;35.940;126.892;2022-08-18T02:38:40;36.00;99.90
11639;DHT22;5875;35.940;126.892;2022-08-18T02:41:10;35.60;99.90
11639;DHT22;5875;35.940;126.892;2022-08-18T02:43:38;36.60;99.90
11639;DHT22;5875;35.940;126.892;2022-08-18T02:46:07;36.10;99.90
11639;DHT22;5875;35.940;126.892;2022-08-18T02:48:34;34.90;99.90
11639;DHT22;5875;35.940;126.892;2022-08-18T02:51:07;34.50;99.90
11639;DHT22;5875;35.940;126.892;2022-08-18T02:53:35;35.90;99.90
11639;DHT22;5875;35.940;126.892;2022-08-18T02:56:14;37.00;99.90
11639;DHT22;5875;35.940;126.892;2022-08-18T02:58:58;37.40;99.90
11639;DHT22;5875;35.940;126.892;2022-08-18T03:01:31;37.30;99.90
11639;DHT22;5875;35.940;126.892;2022-08-18T03:03:59;37.70;99.90
11639;DHT22;5875;35.940;126.892;2022-08-18T03:06:28;38.00;99.90
11639;DHT22;5875;35.940;126.892;2022-08-18T03:08:56;37.70;99.90
11639;DHT22;5875;35.940;126.892;2022-08-18T03:11:28;37.50;99.90
11639;DHT22;5875;35.940;126.892;2022-08-18T03:13:55;35.90;99.90
11639;DHT22;5875;35.940;126.892;2022-08-18T03:16:23;35.00;99.90
11639;DHT22;5875;35.940;126.892;2022-08-18T03:18:52;36.50;99.90
11639;DHT22;5875;35.940;126.892;2022-08-18T03:21:24;37.20;99.90
11639;DHT22;5875;35.940;126.892;2022-08-18T03:23:53;37.20;99.90
11639;DHT22;5875;35.940;126.892;2022-08-18T03:26:23;37.10;99.90
11639;DHT22;5875;35.940;126.892;2022-08-18T03:28:52;36.30;99.90
11639;DHT22;5875;35.940;126.892;2022-08-18T03:31:22;36.90;99.90
11639;DHT22;5875;35.940;126.892;2022-08-18T03:33:51;37.50;99.90
11639;DHT22;5875;35.940;126.892;2022-08-18T03:36:23;38.00;99.90
11639;DHT22;5875;35.940;126.892;2022-08-18T03:38:52;38.40;99.90
11639;DHT22;5875;35.940;126.892;2022-08-18T03:41:22;38.60;99.90
11639;DHT22;5875;35.940;126.892;2022-08-18T03:43:51;38.80;99.90
11639;DHT22;5875;35.940;126.892;2022-08-18T03:46:20;38.80;99.90
11639;DHT22;5875;35.940;126.892;2022-08-18T03:48:49;38.90;99.90
11639;DHT22;5875;35.940;126.892;2022-08-18T03:51:19;38.40;99.90
11639;DHT22;5875;35.940;126.892;2022-08-18T03:53:48;38.30;99.90
11639;DHT22;5875;35.940;126.892;2022-08-18T03:56:18;38.20;99.90
11639;DHT22;5875;35.940;126.892;2022-08-18T03:58:48;38.30;99.90
11639;DHT22;5875;35.940;126.892;2022-08-18T04:01:17;37.50;99.90
11639;DHT22;5875;35.940;126.892;2022-08-18T04:03:47;38.00;99.90
11639;DHT22;5875;35.940;126.892;2022-08-18T04:06:16;38.40;99.90
11639;DHT22;5875;35.940;126.892;2022-08-18T04:08:44;38.70;99.90
11639;DHT22;5875;35.940;126.892;2022-08-18T04:11:12;38.70;99.90
11639;DHT22;5875;35.940;126.892;2022-08-18T04:13:40;38.60;99.90
11639;DHT22;5875;35.940;126.892;2022-08-18T04:16:08;38.60;99.90
11639;DHT22;5875;35.940;126.892;2022-08-18T04:18:36;38.70;99.90
11639;DHT22;5875;35.940;126.892;2022-08-18T04:21:06;38.80;99.90
11639;DHT22;5875;35.940;126.892;2022-08-18T04:23:38;39.00;99.90
11639;DHT22;5875;35.940;126.892;2022-08-18T04:26:06;38.80;99.90
11639;DHT22;5875;35.940;126.892;2022-08-18T04:28:34;38.80;99.90
11639;DHT22;5875;35.940;126.892;2022-08-18T04:31:11;38.80;99.90
11639;DHT22;5875;35.940;126.892;2022-08-18T04:33:39;38.80;99.90
11639;DHT22;5875;35.940;126.892;2022-08-18T04:36:12;38.70;99.90
11639;DHT22;5875;35.940;126.892;2022-08-18T04:38:40;38.70;99.90
11639;DHT22;5875;35.940;126.892;2022-08-18T04:41:12;38.70;99.90
11639;DHT22;5875;35.940;126.892;2022-08-18T04:43:40;38.60;99.90
11639;DHT22;5875;35.940;126.892;2022-08-18T04:46:07;38.60;99.90
11639;DHT22;5875;35.940;126.892;2022-08-18T04:48:38;38.60;99.90
11639;DHT22;5875;35.940;126.892;2022-08-18T04:51:14;38.60;99.90
11639;DHT22;5875;35.940;126.892;2022-08-18T04:53:42;38.50;99.90
11639;DHT22;5875;35.940;126.892;2022-08-18T04:58:56;37.00;99.90
11639;DHT22;5875;35.940;126.892;2022-08-18T05:01:27;36.10;99.90
11639;DHT22;5875;35.940;126.892;2022-08-18T05:03:56;36.40;99.90
11639;DHT22;5875;35.940;126.892;2022-08-18T05:06:27;36.90;99.90
11639;DHT22;5875;35.940;126.892;2022-08-18T05:08:57;37.30;99.90
11639;DHT22;5875;35.940;126.892;2022-08-18T05:11:29;37.40;99.90
11639;DHT22;5875;35.940;126.892;2022-08-18T05:14:03;37.30;99.90
11639;DHT22;5875;35.940;126.892;2022-08-18T05:16:30;37.40;99.90
11639;DHT22;5875;35.940;126.892;2022-08-18T05:19:03;37.50;99.90
11639;DHT22;5875;35.940;126.892;2022-08-18T05:21:31;37.50;99.90
11639;DHT22;5875;35.940;126.892;2022-08-18T05:23:59;37.40;99.90
11639;DHT22;5875;35.940;126.892;2022-08-18T05:26:27;37.30;99.90
11639;DHT22;5875;35.940;126.892;2022-08-18T05:28:54;37.40;99.90
11639;DHT22;5875;35.940;126.892;2022-08-18T05:31:23;37.40;99.90
11639;DHT22;5875;35.940;126.892;2022-08-18T05:33:53;37.10;99.90
11639;DHT22;5875;35.940;126.892;2022-08-18T05:36:49;37.10;99.90
11639;DHT22;5875;35.940;126.892;2022-08-18T05:39:37;36.90;99.90
11639;DHT22;5875;35.940;126.892;2022-08-18T05:42:11;36.30;99.90
11639;DHT22;5875;35.940;126.892;2022-08-18T05:44:42;36.20;99.90
11639;DHT22;5875;35.940;126.892;2022-08-18T05:47:28;36.40;99.90
11639;DHT22;5875;35.940;126.892;2022-08-18T05:50:01;36.30;99.90
11639;DHT22;5875;35.940;126.892;2022-08-18T05:52:42;36.00;99.90
11639;DHT22;5875;35.940;126.892;2022-08-18T05:55:16;35.90;99.90
11639;DHT22;5875;35.940;126.892;2022-08-18T05:58:12;35.80;99.90
11639;DHT22;5875;35.940;126.892;2022-08-18T06:00:44;35.60;99.90
11639;DHT22;5875;35.940;126.892;2022-08-18T06:03:25;35.70;99.90
11639;DHT22;5875;35.940;126.892;2022-08-18T06:06:00;35.70;99.90
11639;DHT22;5875;35.940;126.892;2022-08-18T06:08:32;35.80;99.90
11639;DHT22;5875;35.940;126.892;2022-08-18T06:11:02;35.70;99.90
11639;DHT22;5875;35.940;126.892;2022-08-18T06:13:31;35.60;99.90
11639;DHT22;5875;35.940;126.892;2022-08-18T06:16:31;35.40;99.90
11639;DHT22;5875;35.940;126.892;2022-08-18T06:19:01;35.20;99.90
11639;DHT22;5875;35.940;126.892;2022-08-18T06:27:22;34.70;99.90
11639;DHT22;5875;35.940;126.892;2022-08-18T06:30:18;34.70;99.90
11639;DHT22;5875;35.940;126.892;2022-08-18T06:33:20;34.80;99.90
11639;DHT22;5875;35.940;126.892;2022-08-18T06:38:34;34.80;99.90
11639;DHT22;5875;35.940;126.892;2022-08-18T06:46:45;34.80;99.90
11639;DHT22;5875;35.940;126.892;2022-08-18T06:52:29;34.80;99.90
11639;DHT22;5875;35.940;126.892;2022-08-18T06:55:04;34.70;99.90
11639;DHT22;5875;35.940;126.892;2022-08-18T06:57:38;34.70;99.90
11639;DHT22;5875;35.940;126.892;2022-08-18T07:02:52;34.50;99.90
11639;DHT22;5875;35.940;126.892;2022-08-18T07:05:27;34.30;99.90
11639;DHT22;5875;35.940;126.892;2022-08-18T07:08:13;34.10;99.90
11639;DHT22;5875;35.940;126.892;2022-08-18T07:10:44;34.00;99.90
11639;DHT22;5875;35.940;126.892;2022-08-18T07:15:47;33.80;99.90
11639;DHT22;5875;35.940;126.892;2022-08-18T07:18:24;33.80;99.90
11639;DHT22;5875;35.940;126.892;2022-08-18T07:20:57;33.70;99.90
11639;DHT22;5875;35.940;126.892;2022-08-18T07:23:28;33.70;99.90
11639;DHT22;5875;35.940;126.892;2022-08-18T07:26:14;33.70;99.90
11639;DHT22;5875;35.940;126.892;2022-08-18T07:28:44;33.70;99.90
11639;DHT22;5875;35.940;126.892;2022-08-18T07:33:42;33.70;99.90
11639;DHT22;5875;35.940;126.892;2022-08-18T07:36:13;33.60;99.90
11639;DHT22;5875;35.940;126.892;2022-08-18T07:38:49;33.50;99.90
11639;DHT22;5875;35.940;126.892;2022-08-18T07:41:43;33.50;99.90
11639;DHT22;5875;35.940;126.892;2022-08-18T07:44:24;33.40;99.90
11639;DHT22;5875;35.940;126.892;2022-08-18T07:49:23;33.30;99.90
11639;DHT22;5875;35.940;126.892;2022-08-18T08:02:30;32.90;99.90
11639;DHT22;5875;35.940;126.892;2022-08-18T08:07:54;32.60;99.90
11639;DHT22;5875;35.940;126.892;2022-08-18T08:16:04;32.50;99.90
11639;DHT22;5875;35.940;126.892;2022-08-18T08:21:15;32.40;99.90
11639;DHT22;5875;35.940;126.892;2022-08-18T08:32:00;32.10;99.90
11639;DHT22;5875;35.940;126.892;2022-08-18T08:34:44;32.00;99.90
11639;DHT22;5875;35.940;126.892;2022-08-18T08:37:23;32.00;99.90
11639;DHT22;5875;35.940;126.892;2022-08-18T08:40:03;31.90;99.90
11639;DHT22;5875;35.940;126.892;2022-08-18T08:42:47;31.80;99.90
11639;DHT22;5875;35.940;126.892;2022-08-18T08:45:41;31.80;99.90
11639;DHT22;5875;35.940;126.892;2022-08-18T08:48:19;31.70;99.90
11639;DHT22;5875;35.940;126.892;2022-08-18T08:55:54;31.50;99.90
11639;DHT22;5875;35.940;126.892;2022-08-18T08:58:37;31.40;99.90
11639;DHT22;5875;35.940;126.892;2022-08-18T09:01:09;31.40;99.90
11639;DHT22;5875;35.940;126.892;2022-08-18T09:16:06;31.30;99.90
11639;DHT22;5875;35.940;126.892;2022-08-18T09:21:25;31.20;99.90
11639;DHT22;5875;35.940;126.892;2022-08-18T09:24:05;31.20;99.90
11639;DHT22;5875;35.940;126.892;2022-08-18T09:26:39;31.10;99.90
11639;DHT22;5875;35.940;126.892;2022-08-18T09:30:05;31.00;99.90
11639;DHT22;5875;35.940;126.892;2022-08-18T09:37:55;30.80;99.90
11639;DHT22;5875;35.940;126.892;2022-08-18T09:40:52;30.70;99.90
11639;DHT22;5875;35.940;126.892;2022-08-18T09:44:01;30.60;99.90
11639;DHT22;5875;35.940;126.892;2022-08-18T09:46:49;30.50;99.90
11639;DHT22;5875;35.940;126.892;2022-08-18T09:51:56;30.40;99.90
11639;DHT22;5875;35.940;126.892;2022-08-18T09:55:00;30.30;99.90
11639;DHT22;5875;35.940;126.892;2022-08-18T09:57:35;30.30;99.90
11639;DHT22;5875;35.940;126.892;2022-08-18T10:10:48;29.80;99.90
11639;DHT22;5875;35.940;126.892;2022-08-18T10:21:25;29.30;99.90
11639;DHT22;5875;35.940;126.892;2022-08-18T10:29:08;29.00;99.90
11639;DHT22;5875;35.940;126.892;2022-08-18T10:34:44;29.10;99.90
11639;DHT22;5875;35.940;126.892;2022-08-18T10:37:18;29.00;99.90
11639;DHT22;5875;35.940;126.892;2022-08-18T10:42:43;28.80;99.90
11639;DHT22;5875;35.940;126.892;2022-08-18T10:48:23;28.70;99.90
11639;DHT22;5875;35.940;126.892;2022-08-18T10:56:38;28.70;99.90
11639;DHT22;5875;35.940;126.892;2022-08-18T11:04:47;28.40;99.90
11639;DHT22;5875;35.940;126.892;2022-08-18T11:07:24;28.40;99.90
11639;DHT22;5875;35.940;126.892;2022-08-18T11:09:55;28.30;99.90
11639;DHT22;5875;35.940;126.892;2022-08-18T11:15:45;28.30;99.90
11639;DHT22;5875;35.940;126.892;2022-08-18T11:18:35;28.20;99.90
11639;DHT22;5875;35.940;126.892;2022-08-18T11:21:42;28.10;99.90
11639;DHT22;5875;35.940;126.892;2022-08-18T11:27:18;27.90;99.90
11639;DHT22;5875;35.940;126.892;2022-08-18T11:29:45;27.80;99.90
11639;DHT22;5875;35.940;126.892;2022-08-18T11:32:31;27.80;99.90
11639;DHT22;5875;35.940;126.892;2022-08-18T11:40:31;27.70;99.90
11639;DHT22;5875;35.940;126.892;2022-08-18T11:43:22;27.60;99.90
11639;DHT22;5875;35.940;126.892;2022-08-18T11:45:55;27.60;99.90
11639;DHT22;5875;35.940;126.892;2022-08-18T11:51:18;27.50;99.90
11639;DHT22;5875;35.940;126.892;2022-08-18T11:53:54;27.50;99.90
11639;DHT22;5875;35.940;126.892;2022-08-18T11:56:34;27.40;99.90
11639;DHT22;5875;35.940;126.892;2022-08-18T12:01:54;27.40;99.90
11639;DHT22;5875;35.940;126.892;2022-08-18T12:04:41;27.40;99.90
11639;DHT22;5875;35.940;126.892;2022-08-18T12:07:29;27.40;99.90
11639;DHT22;5875;35.940;126.892;2022-08-18T12:10:20;27.10;99.90
11639;DHT22;5875;35.940;126.892;2022-08-18T12:12:50;26.60;99.90
11639;DHT22;5875;35.940;126.892;2022-08-18T12:17:46;26.20;99.90
11639;DHT22;5875;35.940;126.892;2022-08-18T12:20:14;26.10;99.90
11639;DHT22;5875;35.940;126.892;2022-08-18T12:22:43;26.20;99.90
11639;DHT22;5875;35.940;126.892;2022-08-18T12:25:14;26.10;99.90
11639;DHT22;5875;35.940;126.892;2022-08-18T12:27:42;26.00;99.90
11639;DHT22;5875;35.940;126.892;2022-08-18T12:30:11;25.90;99.90
11639;DHT22;5875;35.940;126.892;2022-08-18T12:32:38;26.00;99.90
11639;DHT22;5875;35.940;126.892;2022-08-18T12:35:08;26.10;99.90
11639;DHT22;5875;35.940;126.892;2022-08-18T12:37:43;26.40;99.90
11639;DHT22;5875;35.940;126.892;2022-08-18T12:40:11;26.50;99.90
11639;DHT22;5875;35.940;126.892;2022-08-18T12:42:38;26.50;99.90
11639;DHT22;5875;35.940;126.892;2022-08-18T12:45:06;26.60;99.90
11639;DHT22;5875;35.940;126.892;2022-08-18T12:47:37;26.60;99.90
11639;DHT22;5875;35.940;126.892;2022-08-18T12:50:06;26.70;99.90
11639;DHT22;5875;35.940;126.892;2022-08-18T12:52:33;26.60;99.90
11639;DHT22;5875;35.940;126.892;2022-08-18T12:55:01;26.60;99.90
11639;DHT22;5875;35.940;126.892;2022-08-18T12:57:28;26.60;99.90
11639;DHT22;5875;35.940;126.892;2022-08-18T12:59:55;26.60;99.90
11639;DHT22;5875;35.940;126.892;2022-08-18T13:02:23;26.60;99.90
11639;DHT22;5875;35.940;126.892;2022-08-18T13:04:50;26.60;99.90
11639;DHT22;5875;35.940;126.892;2022-08-18T13:07:17;26.60;99.90
11639;DHT22;5875;35.940;126.892;2022-08-18T13:09:45;26.60;99.90
11639;DHT22;5875;35.940;126.892;2022-08-18T13:12:12;26.60;99.90
11639;DHT22;5875;35.940;126.892;2022-08-18T13:14:40;26.70;99.90
11639;DHT22;5875;35.940;126.892;2022-08-18T13:17:07;26.80;99.90
11639;DHT22;5875;35.940;126.892;2022-08-18T13:19:35;26.90;99.90
11639;DHT22;5875;35.940;126.892;2022-08-18T13:22:03;26.90;99.90
11639;DHT22;5875;35.940;126.892;2022-08-18T13:24:30;27.00;99.90
11639;DHT22;5875;35.940;126.892;2022-08-18T13:26:57;27.10;99.90
11639;DHT22;5875;35.940;126.892;2022-08-18T13:29:24;26.90;99.90
11639;DHT22;5875;35.940;126.892;2022-08-18T13:31:52;26.90;99.90
11639;DHT22;5875;35.940;126.892;2022-08-18T13:34:33;26.90;99.90
11639;DHT22;5875;35.940;126.892;2022-08-18T13:37:00;26.80;99.90
11639;DHT22;5875;35.940;126.892;2022-08-18T13:39:27;26.80;99.90
11639;DHT22;5875;35.940;126.892;2022-08-18T13:41:54;26.80;99.90
11639;DHT22;5875;35.940;126.892;2022-08-18T13:44:22;26.80;99.90
11639;DHT22;5875;35.940;126.892;2022-08-18T13:46:50;26.80;99.90
11639;DHT22;5875;35.940;126.892;2022-08-18T13:49:19;26.70;99.90
11639;DHT22;5875;35.940;126.892;2022-08-18T13:51:47;26.70;99.90
11639;DHT22;5875;35.940;126.892;2022-08-18T13:54:21;26.70;99.90
11639;DHT22;5875;35.940;126.892;2022-08-18T13:56:49;26.70;99.90
11639;DHT22;5875;35.940;126.892;2022-08-18T13:59:16;26.60;99.90
11639;DHT22;5875;35.940;126.892;2022-08-18T14:01:44;26.20;99.90
11639;DHT22;5875;35.940;126.892;2022-08-18T14:04:12;26.20;99.90
11639;DHT22;5875;35.940;126.892;2022-08-18T14:06:39;26.40;99.90
11639;DHT22;5875;35.940;126.892;2022-08-18T14:09:07;26.40;99.90
11639;DHT22;5875;35.940;126.892;2022-08-18T14:11:34;26.50;99.90
11639;DHT22;5875;35.940;126.892;2022-08-18T14:14:04;26.50;99.90
11639;DHT22;5875;35.940;126.892;2022-08-18T14:16:32;26.50;99.90
11639;DHT22;5875;35.940;126.892;2022-08-18T14:19:00;26.50;99.90
11639;DHT22;5875;35.940;126.892;2022-08-18T14:21:59;26.40;99.90
11639;DHT22;5875;35.940;126.892;2022-08-18T14:24:45;26.50;99.90
11639;DHT22;5875;35.940;126.892;2022-08-18T14:27:33;26.40;99.90
11639;DHT22;5875;35.940;126.892;2022-08-18T14:30:03;26.40;99.90
11639;DHT22;5875;35.940;126.892;2022-08-18T14:32:31;26.40;99.90
11639;DHT22;5875;35.940;126.892;2022-08-18T14:35:00;26.30;99.90
11639;DHT22;5875;35.940;126.892;2022-08-18T14:37:29;26.30;99.90
11639;DHT22;5875;35.940;126.892;2022-08-18T14:39:56;26.30;99.90
11639;DHT22;5875;35.940;126.892;2022-08-18T14:42:24;26.20;99.90
11639;DHT22;5875;35.940;126.892;2022-08-18T14:44:51;26.10;99.90
11639;DHT22;5875;35.940;126.892;2022-08-18T14:47:18;26.10;99.90
11639;DHT22;5875;35.940;126.892;2022-08-18T14:49:45;26.10;99.90
11639;DHT22;5875;35.940;126.892;2022-08-18T14:52:12;26.10;99.90
11639;DHT22;5875;35.940;126.892;2022-08-18T14:54:39;26.00;99.90
11639;DHT22;5875;35.940;126.892;2022-08-18T14:57:06;25.90;99.90
11639;DHT22;5875;35.940;126.892;2022-08-18T14:59:38;25.80;99.90
11639;DHT22;5875;35.940;126.892;2022-08-18T15:02:07;25.70;99.90
11639;DHT22;5875;35.940;126.892;2022-08-18T15:04:35;25.50;99.90
11639;DHT22;5875;35.940;126.892;2022-08-18T15:07:03;25.50;99.90
11639;DHT22;5875;35.940;126.892;2022-08-18T15:09:30;25.20;99.90
11639;DHT22;5875;35.940;126.892;2022-08-18T15:11:59;25.20;99.90
11639;DHT22;5875;35.940;126.892;2022-08-18T15:14:29;25.10;99.90
11639;DHT22;5875;35.940;126.892;2022-08-18T15:17:02;24.90;99.90
11639;DHT22;5875;35.940;126.892;2022-08-18T15:19:32;24.90;99.90
11639;DHT22;5875;35.940;126.892;2022-08-18T15:21:59;24.80;99.90
11639;DHT22;5875;35.940;126.892;2022-08-18T15:24:44;24.80;99.90
11639;DHT22;5875;35.940;126.892;2022-08-18T15:27:34;25.10;99.90
11639;DHT22;5875;35.940;126.892;2022-08-18T15:30:09;24.90;99.90
11639;DHT22;5875;35.940;126.892;2022-08-18T15:32:37;24.80;99.90
11639;DHT22;5875;35.940;126.892;2022-08-18T15:35:05;24.60;99.90
11639;DHT22;5875;35.940;126.892;2022-08-18T15:37:35;24.60;99.90
11639;DHT22;5875;35.940;126.892;2022-08-18T15:40:14;24.60;99.90
11639;DHT22;5875;35.940;126.892;2022-08-18T15:42:48;24.60;99.90
11639;DHT22;5875;35.940;126.892;2022-08-18T15:45:21;24.40;99.90
11639;DHT22;5875;35.940;126.892;2022-08-18T15:47:51;24.30;99.90
11639;DHT22;5875;35.940;126.892;2022-08-18T15:50:19;24.40;99.90
11639;DHT22;5875;35.940;126.892;2022-08-18T15:52:59;24.40;99.90
11639;DHT22;5875;35.940;126.892;2022-08-18T15:55:28;24.40;99.90
11639;DHT22;5875;35.940;126.892;2022-08-18T15:57:56;24.50;99.90
11639;DHT22;5875;35.940;126.892;2022-08-18T16:00:25;24.40;99.90
11639;DHT22;5875;35.940;126.892;2022-08-18T16:02:55;24.50;99.90
11639;DHT22;5875;35.940;126.892;2022-08-18T16:05:25;24.40;99.90
11639;DHT22;5875;35.940;126.892;2022-08-18T16:07:54;24.40;99.90
11639;DHT22;5875;35.940;126.892;2022-08-18T16:10:23;24.30;99.90
11639;DHT22;5875;35.940;126.892;2022-08-18T16:12:51;24.40;99.90
11639;DHT22;5875;35.940;126.892;2022-08-18T16:15:21;24.60;99.90
11639;DHT22;5875;35.940;126.892;2022-08-18T16:17:50;24.60;99.90
11639;DHT22;5875;35.940;126.892;2022-08-18T16:20:19;24.30;99.90
11639;DHT22;5875;35.940;126.892;2022-08-18T16:22:47;24.20;99.90
11639;DHT22;5875;35.940;126.892;2022-08-18T16:25:14;24.20;99.90
11639;DHT22;5875;35.940;126.892;2022-08-18T16:27:42;24.20;99.90
11639;DHT22;5875;35.940;126.892;2022-08-18T16:30:12;24.20;99.90
11639;DHT22;5875;35.940;126.892;2022-08-18T16:32:40;24.20;99.90
11639;DHT22;5875;35.940;126.892;2022-08-18T16:35:08;24.40;99.90
11639;DHT22;5875;35.940;126.892;2022-08-18T16:37:36;24.20;99.90
11639;DHT22;5875;35.940;126.892;2022-08-18T16:40:04;24.00;99.90
11639;DHT22;5875;35.940;126.892;2022-08-18T16:42:31;23.90;99.90
11639;DHT22;5875;35.940;126.892;2022-08-18T16:44:59;23.80;99.90
11639;DHT22;5875;35.940;126.892;2022-08-18T16:47:26;23.80;99.90
11639;DHT22;5875;35.940;126.892;2022-08-18T16:49:54;23.70;99.90
11639;DHT22;5875;35.940;126.892;2022-08-18T16:52:21;23.70;99.90
11639;DHT22;5875;35.940;126.892;2022-08-18T16:54:48;23.70;99.90
11639;DHT22;5875;35.940;126.892;2022-08-18T16:57:15;23.70;99.90
11639;DHT22;5875;35.940;126.892;2022-08-18T17:00:06;23.70;99.90
11639;DHT22;5875;35.940;126.892;2022-08-18T17:02:51;23.70;99.90
11639;DHT22;5875;35.940;126.892;2022-08-18T17:05:36;23.70;99.90
11639;DHT22;5875;35.940;126.892;2022-08-18T17:08:03;23.70;99.90
11639;DHT22;5875;35.940;126.892;2022-08-18T17:10:31;23.70;99.90
11639;DHT22;5875;35.940;126.892;2022-08-18T17:13:04;23.70;99.90
11639;DHT22;5875;35.940;126.892;2022-08-18T17:15:32;23.70;99.90
11639;DHT22;5875;35.940;126.892;2022-08-18T17:17:59;23.70;99.90
11639;DHT22;5875;35.940;126.892;2022-08-18T17:20:26;23.70;99.90
11639;DHT22;5875;35.940;126.892;2022-08-18T17:22:53;23.70;99.90
11639;DHT22;5875;35.940;126.892;2022-08-18T17:25:24;23.70;99.90
11639;DHT22;5875;35.940;126.892;2022-08-18T17:27:53;23.70;99.90
11639;DHT22;5875;35.940;126.892;2022-08-18T17:30:21;23.70;99.90
11639;DHT22;5875;35.940;126.892;2022-08-18T17:33:08;23.70;99.90
11639;DHT22;5875;35.940;126.892;2022-08-18T17:35:42;23.80;99.90
11639;DHT22;5875;35.940;126.892;2022-08-18T17:38:26;23.90;99.90
11639;DHT22;5875;35.940;126.892;2022-08-18T17:40:58;24.00;99.90
11639;DHT22;5875;35.940;126.892;2022-08-18T17:43:32;24.10;99.90
11639;DHT22;5875;35.940;126.892;2022-08-18T17:46:21;24.10;99.90
11639;DHT22;5875;35.940;126.892;2022-08-18T17:49:21;24.20;99.90
11639;DHT22;5875;35.940;126.892;2022-08-18T17:51:51;24.30;99.90
11639;DHT22;5875;35.940;126.892;2022-08-18T17:57:21;24.20;99.90
11639;DHT22;5875;35.940;126.892;2022-08-18T18:00:09;24.10;99.90
11639;DHT22;5875;35.940;126.892;2022-08-18T18:02:39;24.00;99.90
11639;DHT22;5875;35.940;126.892;2022-08-18T18:05:10;23.80;99.90
11639;DHT22;5875;35.940;126.892;2022-08-18T18:07:54;23.60;99.90
11639;DHT22;5875;35.940;126.892;2022-08-18T18:10:33;23.40;99.90
11639;DHT22;5875;35.940;126.892;2022-08-18T18:13:33;23.30;99.90
11639;DHT22;5875;35.940;126.892;2022-08-18T18:16:20;23.40;99.90
11639;DHT22;5875;35.940;126.892;2022-08-18T18:19:02;23.40;99.90
11639;DHT22;5875;35.940;126.892;2022-08-18T18:21:33;23.40;99.90
11639;DHT22;5875;35.940;126.892;2022-08-18T18:26:44;23.40;99.90
11639;DHT22;5875;35.940;126.892;2022-08-18T18:29:23;23.40;99.90
11639;DHT22;5875;35.940;126.892;2022-08-18T18:32:06;23.30;99.90